createdAt,value
2019-04-10T00:01:42.522Z,13.53
2019-04-10T00:04:16.199Z,15.23
2019-04-10T00:06:50.065Z,15.43
2019-04-10T00:09:23.193Z,15.03
2019-04-10T00:11:58.908Z,14.40
2019-04-10T00:14:32.424Z,13.47
2019-04-10T00:17:04.957Z,14.07
2019-04-10T00:19:36.539Z,12.50
2019-04-10T00:22:09.685Z,13.17
2019-04-10T00:24:42.853Z,14.53
2019-04-10T00:27:14.747Z,13.90
2019-04-10T00:29:48.772Z,16.00
2019-04-10T00:32:25.318Z,13.20
2019-04-10T00:34:58.262Z,13.10
2019-04-10T00:37:32.693Z,13.03
2019-04-10T00:40:06.897Z,16.10
2019-04-10T00:42:39.162Z,15.97
2019-04-10T00:45:13.277Z,11.50
2019-04-10T00:47:47.692Z,14.07
2019-04-10T00:50:20.218Z,14.40
2019-04-10T00:52:52.599Z,15.03
2019-04-10T00:55:24.385Z,15.67
2019-04-10T00:58:01.571Z,14.63
2019-04-10T01:00:36.382Z,16.30
2019-04-10T01:03:09.277Z,16.57
2019-04-10T01:05:44.918Z,15.53
2019-04-10T01:08:18.145Z,14.57
2019-04-10T01:10:51.207Z,18.67
2019-04-10T01:13:23.604Z,18.93
2019-04-10T01:15:56.679Z,17.97
2019-04-10T01:18:28.995Z,19.83
2019-04-10T01:21:00.715Z,19.17
2019-04-10T01:23:33.412Z,20.50
2019-04-10T01:26:05.222Z,21.43
2019-04-10T01:28:36.927Z,18.73
2019-04-10T01:31:08.489Z,19.90
2019-04-10T01:33:40.913Z,19.80
2019-04-10T01:36:13.612Z,21.33
2019-04-10T01:38:46.325Z,25.57
2019-04-10T01:41:19.525Z,22.87
2019-04-10T01:43:51.607Z,28.17
2019-04-10T01:46:24.314Z,27.40
2019-04-10T01:48:57.625Z,24.20
2019-04-10T01:51:29.641Z,23.47
2019-04-10T01:54:01.145Z,22.33
2019-04-10T01:56:36.053Z,20.90
2019-04-10T01:59:07.674Z,28.90
2019-04-10T02:01:44.992Z,32.40
2019-04-10T02:04:16.567Z,29.93
2019-04-10T02:06:49.557Z,27.80
2019-04-10T02:09:40.401Z,26.77
2019-04-10T02:12:12.501Z,24.03
2019-04-10T02:14:46.827Z,22.57
2019-04-10T02:17:20.645Z,24.37
2019-04-10T02:19:54.560Z,23.57
2019-04-10T02:22:28.722Z,19.57
2019-04-10T02:25:01.288Z,22.10
2019-04-10T02:27:32.861Z,22.53
2019-04-10T02:30:05.078Z,24.70
2019-04-10T02:32:39.229Z,25.67
2019-04-10T02:35:16.572Z,34.27
2019-04-10T02:37:49.489Z,40.63
2019-04-10T02:40:21.126Z,51.43
2019-04-10T02:42:54.708Z,44.07
2019-04-10T02:45:27.759Z,37.00
2019-04-10T02:48:01.682Z,35.60
2019-04-10T02:50:37.281Z,36.80
2019-04-10T02:53:10.942Z,37.20
2019-04-10T02:55:44.305Z,30.73
2019-04-10T02:58:16.417Z,33.33
2019-04-10T03:00:51.803Z,28.57
2019-04-10T03:03:22.482Z,31.13
2019-04-10T03:06:13.525Z,32.40
2019-04-10T03:09:03.436Z,30.70
2019-04-10T03:11:22.264Z,30.27
2019-04-10T03:13:55.587Z,29.60
2019-04-10T03:16:27.443Z,27.60
2019-04-10T03:18:59.767Z,31.27
2019-04-10T03:21:35.728Z,26.30
2019-04-10T03:24:11.768Z,27.23
2019-04-10T03:26:43.851Z,32.90
2019-04-10T03:29:15.975Z,40.13
2019-04-10T03:31:50.449Z,31.50
2019-04-10T03:34:30.943Z,32.13
2019-04-10T03:37:02.776Z,33.60
2019-04-10T03:39:36.176Z,35.43
2019-04-10T03:42:09.096Z,31.20
2019-04-10T03:44:41.100Z,29.13
2019-04-10T03:47:13.512Z,25.50
2019-04-10T03:49:46.348Z,27.10
2019-04-10T03:52:18.998Z,26.83
2019-04-10T03:54:52.350Z,33.30
2019-04-10T03:57:24.667Z,34.10
2019-04-10T03:59:56.659Z,34.57
2019-04-10T04:02:29.568Z,39.17
2019-04-10T04:05:02.614Z,37.77
2019-04-10T04:07:36.785Z,29.67
2019-04-10T04:10:10.848Z,29.63
2019-04-10T04:12:44.575Z,30.23
2019-04-10T04:15:17.717Z,27.37
2019-04-10T04:17:50.621Z,32.87
2019-04-10T04:20:23.185Z,31.20
2019-04-10T04:22:55.315Z,28.50
2019-04-10T04:25:27.397Z,25.17
2019-04-10T04:28:00.402Z,23.17
2019-04-10T04:30:32.152Z,30.63
2019-04-10T04:33:04.769Z,27.33
2019-04-10T04:35:38.799Z,27.63
2019-04-10T04:38:11.706Z,35.63
2019-04-10T04:40:44.265Z,30.57
2019-04-10T04:43:16.699Z,34.53
2019-04-10T04:45:49.312Z,33.87
2019-04-10T04:48:21.851Z,25.17
2019-04-10T04:50:54.412Z,25.13
2019-04-10T04:53:28.751Z,20.70
2019-04-10T04:56:01.821Z,23.10
2019-04-10T04:58:34.315Z,18.67
2019-04-10T05:01:07.015Z,18.43
2019-04-10T05:03:40.280Z,18.00
2019-04-10T05:06:12.547Z,22.07
2019-04-10T05:08:44.897Z,19.77
2019-04-10T05:11:16.821Z,20.23
2019-04-10T05:13:49.713Z,19.90
2019-04-10T05:16:23.138Z,21.17
2019-04-10T05:18:56.196Z,21.83
2019-04-10T05:21:29.983Z,30.87
2019-04-10T05:24:03.246Z,30.87
2019-04-10T05:26:37.569Z,31.40
2019-04-10T05:29:11.136Z,32.33
2019-04-10T05:31:44.690Z,44.00
2019-04-10T05:34:17.794Z,44.20
2019-04-10T05:36:51.506Z,44.27
2019-04-10T05:39:25.101Z,42.30
2019-04-10T05:42:02.004Z,36.70
2019-04-10T05:44:52.323Z,56.43
2019-04-10T05:47:24.097Z,58.77
2019-04-10T05:49:55.816Z,58.87
2019-04-10T05:52:29.007Z,49.50
2019-04-10T05:55:02.229Z,49.53
2019-04-10T05:57:37.008Z,50.33
2019-04-10T06:00:10.559Z,42.67
2019-04-10T06:02:43.876Z,34.03
2019-04-10T06:05:18.140Z,27.40
2019-04-10T06:07:51.660Z,23.57
2019-04-10T06:10:24.748Z,24.87
2019-04-10T06:12:58.434Z,24.23
2019-04-10T06:15:35.100Z,22.03
2019-04-10T06:18:18.743Z,20.10
2019-04-10T06:20:53.144Z,20.33
2019-04-10T06:23:25.561Z,18.70
2019-04-10T06:25:58.426Z,18.00
2019-04-10T06:28:30.996Z,17.37
2019-04-10T06:31:04.582Z,15.73
2019-04-10T06:33:36.183Z,12.37
2019-04-10T06:36:09.803Z,11.40
2019-04-10T06:38:43.329Z,16.67
2019-04-10T06:41:19.220Z,13.67
2019-04-10T06:43:53.107Z,11.77
2019-04-10T06:46:25.907Z,13.43
2019-04-10T06:48:58.922Z,10.60
2019-04-10T06:51:31.663Z,9.60
2019-04-10T06:54:08.091Z,10.13
2019-04-10T06:56:38.401Z,16.90
2019-04-10T06:59:16.271Z,21.73
2019-04-10T07:01:54.528Z,25.97
2019-04-10T07:04:25.224Z,23.73
2019-04-10T07:07:04.475Z,17.80
2019-04-10T07:09:31.821Z,23.23
2019-04-10T07:12:05.627Z,30.57
2019-04-10T07:14:40.931Z,18.97
2019-04-10T07:17:14.496Z,18.93
2019-04-10T07:19:47.753Z,21.77
2019-04-10T07:22:20.947Z,25.30
2019-04-10T07:24:54.460Z,28.57
2019-04-10T07:27:26.493Z,50.53
2019-04-10T07:29:59.821Z,40.00
2019-04-10T07:32:32.368Z,34.10
2019-04-10T07:35:05.081Z,38.73
2019-04-10T07:37:40.308Z,41.50
2019-04-10T07:40:14.441Z,45.23
2019-04-10T07:42:46.441Z,50.20
2019-04-10T07:45:19.321Z,41.57
2019-04-10T07:47:52.507Z,44.50
2019-04-10T07:50:26.135Z,40.33
2019-04-10T07:53:00.252Z,43.73
2019-04-10T07:55:33.107Z,26.37
2019-04-10T07:58:15.901Z,35.63
2019-04-10T08:00:49.747Z,37.37
2019-04-10T08:03:23.532Z,45.60
2019-04-10T08:05:58.202Z,42.23
2019-04-10T08:08:31.484Z,29.77
2019-04-10T08:11:04.929Z,21.87
2019-04-10T08:13:38.509Z,17.27
2019-04-10T08:16:11.639Z,13.90
2019-04-10T08:18:45.621Z,12.77
2019-04-10T08:21:20.133Z,21.10
2019-04-10T08:23:54.893Z,22.27
2019-04-10T08:26:28.547Z,17.97
2019-04-10T08:29:01.604Z,16.50
2019-04-10T08:31:33.569Z,10.83
2019-04-10T08:34:06.821Z,7.10
2019-04-10T08:36:39.479Z,13.10
2019-04-10T08:39:27.717Z,7.40
2019-04-10T08:41:48.092Z,6.53
2019-04-10T08:44:22.855Z,6.83
2019-04-10T08:46:55.781Z,7.47
2019-04-10T08:49:28.615Z,22.43
2019-04-10T08:52:02.468Z,6.93
2019-04-10T08:54:36.310Z,5.00
2019-04-10T08:57:11.154Z,6.83
2019-04-10T08:59:47.203Z,9.67
2019-04-10T09:02:20.784Z,10.37
2019-04-10T09:04:53.569Z,13.20
2019-04-10T09:07:26.317Z,56.80
2019-04-10T09:10:02.485Z,21.30
2019-04-10T09:12:35.455Z,9.77
2019-04-10T09:15:09.779Z,7.43
2019-04-10T09:17:43.715Z,8.70
2019-04-10T09:20:18.857Z,7.87
2019-04-10T09:23:13.383Z,8.67
2019-04-10T09:25:28.207Z,7.57
2019-04-10T09:28:02.222Z,6.63
2019-04-10T09:30:35.875Z,7.30
2019-04-10T09:33:18.978Z,10.10
2019-04-10T09:35:43.026Z,10.70
2019-04-10T09:38:16.878Z,13.30
2019-04-10T09:40:49.400Z,23.13
2019-04-10T09:43:21.686Z,22.83
2019-04-10T09:45:54.131Z,27.07
2019-04-10T09:48:27.524Z,111.03
2019-04-10T09:51:00.288Z,31.53
2019-04-10T09:53:32.986Z,23.07
2019-04-10T09:56:05.549Z,21.60
2019-04-10T09:58:39.021Z,35.03
2019-04-10T10:01:15.589Z,29.00
2019-04-10T10:03:48.777Z,28.63
2019-04-10T10:06:26.103Z,24.77
2019-04-10T10:08:56.714Z,27.33
2019-04-10T10:11:30.956Z,21.40
2019-04-10T10:14:06.059Z,19.63
2019-04-10T10:16:39.992Z,17.53
2019-04-10T10:19:14.094Z,14.50
2019-04-10T10:21:47.080Z,12.80
2019-04-10T10:24:20.535Z,14.03
2019-04-10T10:26:53.546Z,10.83
2019-04-10T10:29:26.295Z,12.57
2019-04-10T10:32:00.299Z,15.93
2019-04-10T10:34:33.155Z,9.03
2019-04-10T10:37:06.367Z,13.47
2019-04-10T10:39:41.086Z,15.40
2019-04-10T10:42:14.412Z,25.57
2019-04-10T10:44:48.402Z,23.53
2019-04-10T10:47:22.235Z,25.77
2019-04-10T10:49:55.371Z,23.47
2019-04-10T10:52:27.802Z,26.77
2019-04-10T10:55:01.056Z,31.23
2019-04-10T10:57:35.331Z,25.30
2019-04-10T11:00:11.528Z,24.77
2019-04-10T11:02:43.621Z,15.23
2019-04-10T11:05:17.008Z,8.30
2019-04-10T11:07:51.465Z,14.40
2019-04-10T11:10:27.522Z,6.03
2019-04-10T11:12:59.980Z,14.30
2019-04-10T11:15:32.714Z,8.20
2019-04-10T11:18:26.211Z,7.67
2019-04-10T11:21:08.010Z,8.40
2019-04-10T11:23:37.760Z,7.30
2019-04-10T11:26:12.838Z,8.40
2019-04-10T11:28:47.908Z,9.53
2019-04-10T11:31:23.640Z,8.93
2019-04-10T11:33:56.745Z,7.13
2019-04-10T11:36:30.015Z,8.30
2019-04-10T11:39:12.896Z,7.87
2019-04-10T11:41:37.381Z,8.10
2019-04-10T11:44:11.515Z,8.87
2019-04-10T11:46:49.405Z,9.50
2019-04-10T11:49:23.691Z,8.90
2019-04-10T11:52:00.022Z,11.20
2019-04-10T11:54:37.203Z,8.57
2019-04-10T11:57:07.603Z,7.57
2019-04-10T11:59:41.068Z,8.27
2019-04-10T12:02:14.418Z,9.10
2019-04-10T12:07:54.891Z,10.30
2019-04-10T12:12:35.453Z,8.73
2019-04-10T12:15:08.848Z,9.37
2019-04-10T12:17:42.996Z,9.23
2019-04-10T12:20:18.733Z,8.33
2019-04-10T12:22:54.507Z,9.80
2019-04-10T12:25:27.611Z,9.77
2019-04-10T12:28:01.248Z,17.93
2019-04-10T12:30:35.976Z,10.33
2019-04-10T12:33:11.732Z,9.17
2019-04-10T12:35:45.747Z,7.77
2019-04-10T12:38:19.629Z,8.97
2019-04-10T12:40:53.567Z,10.17
2019-04-10T12:43:27.321Z,13.20
2019-04-10T12:46:02.345Z,8.07
2019-04-10T12:48:35.335Z,10.60
2019-04-10T12:51:09.826Z,10.97
2019-04-10T12:53:43.981Z,14.30
2019-04-10T12:56:17.785Z,15.63
2019-04-10T12:58:52.970Z,15.40
2019-04-10T13:01:26.946Z,29.10
2019-04-10T13:04:00.236Z,19.87
2019-04-10T13:06:32.235Z,13.57
2019-04-10T13:09:09.447Z,14.53
2019-04-10T13:11:42.742Z,15.20
2019-04-10T13:14:16.980Z,24.67
2019-04-10T13:17:00.584Z,32.67
2019-04-10T13:19:34.296Z,35.03
2019-04-10T13:22:09.503Z,26.67
2019-04-10T13:24:43.800Z,15.20
2019-04-10T13:27:21.029Z,14.70
2019-04-10T13:29:55.072Z,12.33
2019-04-10T13:32:28.375Z,9.80
2019-04-10T13:35:02.311Z,9.93
2019-04-10T13:37:36.540Z,9.97
2019-04-10T13:40:08.907Z,6.33
2019-04-10T13:42:45.291Z,7.60
2019-04-10T13:45:19.409Z,8.43
2019-04-10T13:47:52.588Z,10.60
2019-04-10T13:50:26.436Z,8.23
2019-04-10T13:52:59.668Z,7.87
2019-04-10T13:55:34.585Z,7.07
2019-04-10T13:58:08.786Z,8.43
2019-04-10T14:00:43.119Z,6.17
2019-04-10T14:03:16.443Z,7.03
2019-04-10T14:05:49.470Z,6.70
2019-04-10T14:08:36.029Z,7.67
2019-04-10T14:10:57.222Z,7.43
2019-04-10T14:13:31.885Z,8.57
2019-04-10T14:16:06.797Z,7.20
2019-04-10T14:18:41.104Z,8.53
2019-04-10T14:21:31.294Z,7.43
2019-04-10T14:24:17.899Z,5.40
2019-04-10T14:27:09.251Z,7.97
2019-04-10T14:29:44.795Z,10.27
2019-04-10T14:32:27.871Z,9.90
2019-04-10T14:35:03.177Z,7.40
2019-04-10T14:37:37.870Z,10.23
2019-04-10T14:40:13.713Z,13.23
2019-04-10T14:42:49.430Z,14.13
2019-04-10T14:45:25.594Z,11.37
2019-04-10T14:48:00.069Z,11.87
2019-04-10T14:50:33.654Z,9.50
2019-04-10T14:53:07.752Z,10.13
2019-04-10T14:55:42.246Z,9.00
2019-04-10T14:58:24.028Z,8.53
2019-04-10T15:00:50.957Z,9.63
2019-04-10T15:03:24.300Z,10.10
2019-04-10T15:05:59.861Z,9.23
2019-04-10T15:08:35.525Z,11.90
2019-04-10T15:11:10.818Z,10.43
2019-04-10T15:13:45.733Z,15.13
2019-04-10T15:16:21.289Z,8.67
2019-04-10T15:19:10.426Z,14.73
2019-04-10T15:21:43.031Z,10.37
2019-04-10T15:24:17.796Z,9.53
2019-04-10T15:26:51.009Z,12.53
2019-04-10T15:29:24.609Z,15.03
2019-04-10T15:31:57.831Z,19.00
2019-04-10T15:34:33.963Z,15.87
2019-04-10T15:37:08.869Z,22.33
2019-04-10T15:39:43.607Z,25.87
2019-04-10T15:42:16.913Z,24.53
2019-04-10T15:44:50.325Z,26.10
2019-04-10T15:47:25.616Z,17.80
2019-04-10T15:50:08.567Z,14.60
2019-04-10T15:52:42.998Z,9.90
2019-04-10T15:55:16.067Z,12.07
2019-04-10T15:57:53.718Z,12.23
2019-04-10T16:00:25.376Z,12.40
2019-04-10T16:03:00.760Z,12.53
2019-04-10T16:05:34.478Z,13.80
2019-04-10T16:08:08.340Z,14.80
2019-04-10T16:11:01.527Z,15.83
2019-04-10T16:13:38.807Z,11.83
2019-04-10T16:16:50.726Z,10.57
2019-04-10T16:19:38.878Z,10.77
2019-04-10T16:22:19.625Z,11.63
2019-04-10T16:24:53.358Z,13.63
2019-04-10T16:27:28.678Z,16.20
2019-04-10T16:30:03.636Z,21.13
2019-04-10T16:32:36.941Z,13.67
2019-04-10T16:35:21.101Z,10.63
2019-04-10T16:37:56.237Z,11.03
2019-04-10T16:40:30.010Z,11.10
2019-04-10T16:43:04.918Z,14.43
2019-04-10T16:45:40.536Z,11.23
2019-04-10T16:48:14.754Z,13.47
2019-04-10T16:50:47.790Z,15.50
2019-04-10T16:53:22.206Z,16.37
2019-04-10T16:55:54.222Z,33.23
2019-04-10T16:58:28.043Z,19.80
2019-04-10T17:01:00.621Z,20.10
2019-04-10T17:03:34.572Z,16.53
2019-04-10T17:06:08.828Z,10.93
2019-04-10T17:08:43.956Z,10.67
2019-04-10T17:11:18.024Z,9.87
2019-04-10T17:13:50.999Z,8.67
2019-04-10T17:16:24.190Z,12.33
2019-04-10T17:18:57.640Z,13.80
2019-04-10T17:21:31.098Z,15.23
2019-04-10T17:24:09.638Z,17.10
2019-04-10T17:26:45.383Z,18.47
2019-04-10T17:29:19.003Z,14.73
2019-04-10T17:31:53.408Z,15.37
2019-04-10T17:34:27.047Z,13.83
2019-04-10T17:37:01.125Z,13.07
2019-04-10T17:39:35.565Z,16.30
2019-04-10T17:42:10.193Z,16.97
2019-04-10T17:44:44.050Z,19.03
2019-04-10T17:47:18.021Z,20.70
2019-04-10T17:49:53.923Z,20.83
2019-04-10T17:52:28.074Z,19.03
2019-04-10T17:55:01.438Z,16.20
2019-04-10T17:57:39.864Z,14.90
2019-04-10T18:00:35.625Z,14.23
2019-04-10T18:03:09.379Z,14.13
2019-04-10T18:05:44.590Z,14.53
2019-04-10T18:08:18.841Z,15.40
2019-04-10T18:10:55.403Z,12.20
2019-04-10T18:13:28.730Z,11.63
2019-04-10T18:16:02.334Z,10.57
2019-04-10T19:41:29.591Z,31.67
2019-04-10T19:43:56.838Z,34.10
2019-04-10T19:46:31.345Z,32.10
2019-04-10T19:49:05.937Z,31.07
2019-04-10T19:51:40.548Z,34.10
2019-04-10T19:54:15.654Z,28.97
2019-04-10T19:56:48.832Z,28.93
2019-04-10T19:59:21.548Z,28.83
2019-04-10T20:01:55.701Z,29.23
2019-04-10T20:04:28.804Z,31.20
2019-04-10T20:07:02.795Z,34.57
2019-04-10T20:09:36.749Z,29.00
2019-04-10T20:12:10.654Z,28.03
2019-04-10T20:14:44.352Z,23.17
2019-04-10T20:17:16.756Z,23.73
2019-04-10T20:19:51.130Z,19.47
2019-04-10T20:22:25.173Z,24.53
2019-04-10T20:24:57.413Z,17.17
2019-04-10T20:27:30.522Z,16.03
2019-04-10T20:30:05.603Z,18.80
2019-04-10T20:32:38.647Z,19.10
2019-04-10T20:35:13.577Z,20.00
2019-04-10T20:37:45.526Z,21.43
2019-04-10T20:40:20.820Z,19.73
2019-04-10T20:42:54.253Z,26.60
2019-04-10T20:45:27.485Z,18.13
2019-04-10T20:48:02.270Z,17.17
2019-04-10T20:50:36.512Z,18.93
2019-04-10T20:53:10.039Z,20.23
2019-04-10T20:55:44.120Z,19.20
2019-04-10T20:58:19.109Z,23.63
2019-04-10T21:00:53.139Z,22.63
2019-04-10T21:03:27.407Z,25.07
2019-04-10T21:06:00.468Z,19.80
2019-04-10T21:08:34.161Z,20.87
2019-04-10T21:11:07.650Z,18.53
2019-04-10T21:13:42.467Z,22.97
2019-04-10T21:16:15.608Z,20.13
2019-04-10T21:18:49.024Z,24.03
2019-04-10T21:21:22.253Z,21.17
2019-04-10T21:23:56.692Z,19.83
2019-04-10T21:26:30.430Z,22.60
2019-04-10T21:29:04.509Z,18.27
2019-04-10T21:31:55.470Z,19.70
2019-04-10T21:34:32.531Z,17.40
2019-04-10T21:37:06.084Z,18.47
2019-04-10T21:39:38.179Z,18.97
2019-04-10T21:42:19.473Z,20.00
2019-04-10T21:44:45.014Z,19.13
2019-04-10T21:47:19.368Z,22.33
2019-04-10T21:49:53.410Z,24.30
2019-04-10T21:52:25.487Z,32.37
2019-04-10T21:55:00.285Z,33.30
2019-04-10T21:57:34.170Z,24.47
2019-04-10T22:00:09.993Z,24.03
2019-04-10T22:02:48.563Z,20.70
2019-04-10T22:05:21.942Z,23.07
2019-04-10T22:08:14.618Z,23.60
2019-04-10T22:10:50.286Z,21.63
2019-04-10T22:13:24.620Z,24.83
2019-04-10T22:15:59.563Z,22.20
2019-04-10T22:18:32.289Z,19.73
2019-04-10T22:21:06.033Z,20.60
2019-04-10T22:23:38.075Z,19.37
2019-04-10T22:26:11.669Z,20.17
2019-04-10T22:28:45.423Z,21.37
2019-04-10T22:31:18.114Z,24.27
2019-04-10T22:33:52.265Z,25.47
2019-04-10T22:36:24.824Z,33.50
2019-04-10T22:38:58.380Z,30.63
2019-04-10T22:41:35.459Z,27.40
2019-04-10T22:44:09.751Z,24.10
2019-04-10T22:46:42.581Z,22.77
2019-04-10T22:49:14.712Z,22.43
2019-04-10T22:51:47.652Z,33.97
2019-04-10T22:54:21.948Z,28.00
2019-04-10T22:56:56.563Z,21.53
2019-04-10T22:59:30.602Z,24.53
2019-04-10T23:02:10.772Z,24.70
2019-04-10T23:04:39.549Z,19.30
2019-04-10T23:07:11.621Z,19.53
2019-04-10T23:09:46.302Z,23.00
2019-04-10T23:12:18.988Z,25.10
2019-04-10T23:14:51.174Z,24.90
2019-04-10T23:17:24.316Z,28.27
2019-04-10T23:19:56.823Z,22.27
2019-04-10T23:22:31.717Z,19.47
2019-04-10T23:25:04.449Z,22.00
2019-04-10T23:27:38.735Z,18.17
2019-04-10T23:30:14.918Z,13.83
2019-04-10T23:32:48.683Z,16.17
2019-04-10T23:35:21.284Z,17.77
2019-04-10T23:37:55.203Z,17.83
2019-04-10T23:40:27.740Z,16.20
2019-04-10T23:43:08.100Z,20.03
2019-04-10T23:45:34.184Z,17.33
2019-04-10T23:48:06.722Z,16.67
2019-04-10T23:50:40.654Z,17.80
2019-04-10T23:53:14.145Z,18.00
2019-04-10T23:55:48.314Z,21.43
2019-04-10T23:58:20.335Z,22.77
